Time;durP1;ratioP1;P1;durP2;ratioP2;P2;SDS_P1;SDS_P2;PMS_P1;PMS_P2;Temp;Humidity;BMP_temperature;BMP_pressure;BME280_temperature;BME280_humidity;BME280_pressure;Samples;Min_cycle;Max_cycle;Signal;HPM_P1;HPM_P2
2022/05/02 00:00:59;;;;;;;0.00;0.00;;;;;;;8.06;93.96;102228.41;10424778;28;20587;-67
2022/05/02 00:06:00;;;;;;;0.00;0.00;;;;;;;8.07;92.82;102221.28;10427055;28;20012;-67
2022/05/02 00:11:00;;;;;;;0.00;0.00;;;;;;;8.10;91.47;102221.91;10431617;28;20025;-68
2022/05/02 00:16:00;;;;;;;0.00;0.00;;;;;;;8.13;91.38;102218.19;10439843;28;20020;-68
2022/05/02 00:21:01;;;;;;;0.00;0.00;;;;;;;8.08;94.01;102220.31;10437390;28;20381;-67
2022/05/02 00:26:01;;;;;;;0.00;0.00;;;;;;;8.05;93.53;102210.75;10423692;28;20025;-67
2022/05/02 00:31:03;;;;;;;0.00;0.00;;;;;;;8.03;93.88;102201.22;10431390;28;20039;-67
2022/05/02 00:36:04;;;;;;;0.00;0.00;;;;;;;7.97;92.52;102207.81;10430760;28;20108;-67
2022/05/02 00:41:05;;;;;;;0.00;0.00;;;;;;;7.94;92.45;102208.88;10431566;28;20018;-67
2022/05/02 00:46:23;;;;;;;0.00;0.00;;;;;;;7.94;91.49;102202.72;10430826;28;20075;-67
2022/05/02 00:51:23;;;;;;;0.10;0.10;;;;;;;7.92;92.80;102204.66;10436343;28;20044;-67
2022/05/02 00:56:24;;;;;;;0.00;0.00;;;;;;;7.85;92.48;102198.94;10428201;28;20020;-67
2022/05/02 01:01:24;;;;;;;0.00;0.00;;;;;;;7.78;94.43;102197.66;10427909;28;20029;-67
2022/05/02 01:11:43;;;;;;;0.03;0.03;;;;;;;7.49;95.67;102199.66;10435138;28;20104;-67
2022/05/02 01:16:43;;;;;;;0.00;0.00;;;;;;;7.35;96.99;102195.31;10424958;28;20120;-67
2022/05/02 01:21:44;;;;;;;0.00;0.00;;;;;;;7.22;97.71;102202.41;10417101;28;20087;-67
2022/05/02 01:26:44;;;;;;;0.00;0.00;;;;;;;7.02;99.34;102194.00;10424860;28;20028;-67
2022/05/02 01:31:45;;;;;;;0.00;0.00;;;;;;;6.82;100.00;102193.63;10430837;28;20025;-67
2022/05/02 01:36:45;;;;;;;0.00;0.00;;;;;;;6.61;100.00;102198.53;10422567;28;20035;-67
2022/05/02 01:41:46;;;;;;;0.00;0.00;;;;;;;6.38;100.00;102194.72;10419644;28;20013;-67
2022/05/02 01:46:46;;;;;;;0.00;0.00;;;;;;;6.16;100.00;102184.63;10438426;28;20402;-67
2022/05/02 01:51:47;;;;;;;0.00;0.00;;;;;;;5.99;100.00;102183.06;10437585;28;20084;-67
2022/05/02 01:56:48;;;;;;;0.00;0.00;;;;;;;5.77;100.00;102176.44;10420932;28;20033;-67
2022/05/02 02:01:49;;;;;;;0.00;0.00;;;;;;;5.60;100.00;102177.47;10425270;28;20032;-66
2022/05/02 02:06:50;;;;;;;0.00;0.00;;;;;;;5.42;100.00;102176.78;10432353;28;20030;-67
2022/05/02 02:11:51;;;;;;;0.00;0.00;;;;;;;5.24;100.00;102175.28;10437205;28;20033;-67
2022/05/02 02:16:51;;;;;;;0.00;0.00;;;;;;;5.06;100.00;102169.28;10438085;28;20483;-67
2022/05/02 02:21:52;;;;;;;0.00;0.00;;;;;;;4.89;100.00;102167.63;10434234;28;20021;-67
2022/05/02 02:26:52;;;;;;;0.00;0.00;;;;;;;4.71;100.00;102158.13;10427241;28;20029;-67
2022/05/02 02:31:52;;;;;;;0.00;0.00;;;;;;;4.60;100.00;102155.28;10441799;28;20263;-67
2022/05/02 02:36:53;;;;;;;0.08;0.08;;;;;;;4.46;100.00;102164.81;10432008;28;20476;-67
2022/05/02 02:41:53;;;;;;;0.00;0.00;;;;;;;4.32;100.00;102162.94;10430473;28;20099;-66
2022/05/02 02:46:53;;;;;;;0.00;0.00;;;;;;;4.19;100.00;102158.44;10424269;28;20116;-66
2022/05/02 02:51:54;;;;;;;0.00;0.00;;;;;;;4.06;100.00;102161.75;10429161;28;20276;-67
2022/05/02 02:56:54;;;;;;;0.03;0.03;;;;;;;3.90;100.00;102158.28;10441985;28;20069;-67
2022/05/02 03:01:56;;;;;;;0.00;0.00;;;;;;;3.74;100.00;102145.06;10429080;28;20383;-67
2022/05/02 03:06:58;;;;;;;0.10;0.10;;;;;;;3.53;100.00;102147.06;10433055;28;20029;-67
2022/05/02 03:11:58;;;;;;;0.05;0.05;;;;;;;3.40;100.00;102144.22;10431667;28;20444;-66
2022/05/02 03:16:59;;;;;;;0.00;0.00;;;;;;;3.29;100.00;102143.09;10446281;28;20234;-67
2022/05/02 03:21:59;;;;;;;0.00;0.00;;;;;;;3.21;100.00;102145.25;10426244;28;20021;-66
2022/05/02 03:27:00;;;;;;;0.00;0.00;;;;;;;3.23;100.00;102143.38;10431443;28;20270;-67
2022/05/02 03:32:00;;;;;;;0.10;0.10;;;;;;;3.25;100.00;102149.44;10432045;28;20032;-66
2022/05/02 03:37:01;;;;;;;0.10;0.10;;;;;;;3.18;100.00;102147.13;10433741;28;20113;-67
2022/05/02 03:42:01;;;;;;;0.10;0.10;;;;;;;3.16;100.00;102142.84;10438053;28;20476;-66
2022/05/02 03:47:01;;;;;;;0.10;0.10;;;;;;;3.09;100.00;102144.97;10433425;28;20032;-67
2022/05/02 03:52:03;;;;;;;0.10;0.10;;;;;;;3.13;100.00;102133.31;10436773;28;20025;-66
2022/05/02 03:57:04;;;;;;;0.00;0.00;;;;;;;3.16;100.00;102145.47;10433253;28;20031;-66
2022/05/02 04:02:05;;;;;;;0.10;0.10;;;;;;;3.16;100.00;102148.97;10433258;28;20096;-67
2022/05/02 04:07:06;;;;;;;0.00;0.00;;;;;;;3.24;100.00;102150.38;10429400;28;20032;-66
2022/05/02 04:12:08;;;;;;;0.10;0.10;;;;;;;3.33;100.00;102152.53;10416944;28;20070;-67
2022/05/02 04:17:09;;;;;;;0.00;0.00;;;;;;;3.73;100.00;102153.91;10532972;22;20042;-60
2022/05/02 04:22:09;;;;;;;0.00;0.00;;;;;;;4.87;100.00;102153.66;10576386;28;20447;-61
2022/05/02 04:27:10;;;;;;;0.10;0.10;;;;;;;6.24;100.00;102163.84;10543929;28;20095;-61
2022/05/02 04:32:10;;;;;;;0.00;0.00;;;;;;;7.71;100.00;102157.44;10560488;28;20036;-61
2022/05/02 04:37:10;;;;;;;0.00;0.00;;;;;;;8.53;100.00;102168.41;10556245;28;20036;-60
2022/05/02 04:42:11;;;;;;;0.00;0.00;;;;;;;9.19;100.00;102170.56;10543471;28;20539;-60
2022/05/02 04:47:11;;;;;;;0.00;0.00;;;;;;;10.08;100.00;102168.94;10564226;28;20269;-61
2022/05/02 04:52:11;;;;;;;0.00;0.00;;;;;;;11.10;96.62;102167.63;10554883;28;20035;-60
2022/05/02 04:57:12;;;;;;;0.10;0.10;;;;;;;12.03;93.23;102172.06;10554005;28;20359;-61
2022/05/02 05:02:12;;;;;;;0.10;0.10;;;;;;;13.09;89.86;102171.34;10538910;28;20028;-61
2022/05/02 05:07:12;;;;;;;0.10;0.10;;;;;;;14.13;84.37;102165.91;10534232;28;20081;-62
2022/05/02 05:12:33;;;;;;;0.10;0.10;;;;;;;15.04;81.21;102181.94;10543298;28;20376;-62
2022/05/02 05:17:51;;;;;;;0.10;0.10;;;;;;;15.42;79.16;102165.56;10561309;28;20437;-62
2022/05/02 05:23:10;;;;;;;0.10;0.10;;;;;;;16.20;75.17;102163.63;10533990;28;20066;-62
2022/05/02 05:28:32;;;;;;;0.00;0.00;;;;;;;16.67;71.71;102170.28;10567916;28;20315;-61
2022/05/02 05:33:57;;;;;;;0.00;0.00;;;;;;;17.04;68.51;102166.25;10542048;28;20022;-62
2022/05/02 05:39:15;;;;;;;0.10;0.10;;;;;;;17.31;66.74;102162.38;10575694;28;20026;-62
2022/05/02 05:44:35;;;;;;;0.00;0.00;;;;;;;18.00;60.77;102154.59;10553397;28;20035;-61
2022/05/02 05:49:50;;;;;;;0.10;0.10;;;;;;;18.44;57.79;102156.69;10578206;28;20031;-62
2022/05/02 05:55:00;;;;;;;0.00;0.00;;;;;;;18.42;57.30;102159.59;10547229;28;20293;-61
2022/05/02 06:00:06;;;;;;;0.10;0.10;;;;;;;18.63;57.33;102158.09;10556672;28;20020;-61
2022/05/02 06:05:08;;;;;;;0.10;0.10;;;;;;;19.17;54.72;102158.03;10581943;28;20055;-61
2022/05/02 06:10:09;;;;;;;0.00;0.00;;;;;;;19.23;51.78;102159.97;10583206;28;20020;-61
2022/05/02 06:20:38;;;;;;;0.10;0.10;;;;;;;19.75;48.53;102158.25;10571769;28;20087;-62
2022/05/02 06:25:40;;;;;;;0.00;0.00;;;;;;;19.46;46.20;102165.31;10581837;28;20015;-61
2022/05/02 06:30:43;;;;;;;0.00;0.00;;;;;;;19.14;46.69;102161.91;10581915;28;20027;-61
2022/05/02 06:36:21;;;;;;;;;;;;;;;19.86;47.32;102155.06;10551084;28;20024;-60
2022/05/02 06:41:55;;;;;;;0.08;0.08;;;;;;;20.44;46.15;102161.34;10472815;28;19916;-61
2022/05/02 06:47:00;;;;;;;0.03;0.03;;;;;;;20.81;43.15;102162.19;10533179;28;20599;-62
2022/05/02 06:52:09;;;;;;;0.10;0.10;;;;;;;20.86;39.87;102162.44;10537252;28;20494;-61
2022/05/02 06:57:21;;;;;;;0.10;0.10;;;;;;;21.05;40.52;102152.78;10553020;28;20026;-61
2022/05/02 07:02:21;;;;;;;;;;;;;;;21.25;39.23;102153.78;10544032;28;20131;-62
2022/05/02 07:07:44;;;;;;;0.00;0.00;;;;;;;21.62;38.62;102146.31;10538182;28;20006;-60
2022/05/02 07:13:25;;;;;;;0.00;0.00;;;;;;;21.87;38.63;102151.22;10537863;28;20028;-62
2022/05/02 07:18:52;;;;;;;0.10;0.10;;;;;;;21.86;38.68;102144.97;10542118;28;20064;-62
2022/05/02 07:24:05;;;;;;;0.10;0.10;;;;;;;21.84;35.83;102148.94;10531368;28;20032;-62
2022/05/02 07:29:06;;;;;;;0.10;0.10;;;;;;;21.25;35.17;102148.34;10536971;28;20038;-62
2022/05/02 07:34:11;;;;;;;0.10;0.10;;;;;;;20.63;36.96;102149.09;10538482;28;20039;-60
2022/05/02 07:39:14;;;;;;;0.00;0.00;;;;;;;20.43;37.57;102145.34;10547427;28;20100;-62
2022/05/02 07:44:16;;;;;;;0.10;0.10;;;;;;;20.43;37.80;102146.16;10536847;28;20390;-62
2022/05/02 07:49:23;;;;;;;0.00;0.00;;;;;;;20.46;38.63;102140.38;10541676;28;20069;-62
2022/05/02 07:54:29;;;;;;;0.10;0.10;;;;;;;20.12;38.28;102147.28;10550811;28;20043;-62
2022/05/02 07:59:33;;;;;;;0.10;0.10;;;;;;;19.88;39.28;102140.34;10578723;28;20367;-62
2022/05/02 08:04:37;;;;;;;0.00;0.00;;;;;;;20.05;39.52;102142.84;10549232;28;20036;-62
2022/05/02 08:09:55;;;;;;;0.10;0.10;;;;;;;20.32;39.82;102142.09;10543416;28;20023;-62
2022/05/02 08:15:05;;;;;;;0.00;0.00;;;;;;;20.25;38.08;102135.78;10536270;28;20118;-62
2022/05/02 08:20:40;;;;;;;0.00;0.00;;;;;;;19.99;37.93;102140.91;10560362;28;20398;-62
2022/05/02 08:31:56;;;;;;;0.00;0.00;;;;;;;20.38;38.78;102135.06;10536232;28;20017;-62
2022/05/02 08:37:22;;;;;;;0.00;0.00;;;;;;;20.42;40.44;102128.25;10535477;28;20081;-61
2022/05/02 08:42:58;;;;;;;0.10;0.10;;;;;;;20.53;37.41;102130.47;10550677;28;20035;-62
2022/05/02 08:48:25;;;;;;;0.00;0.00;;;;;;;20.50;35.31;102132.69;10576334;28;20051;-63
2022/05/02 08:53:32;;;;;;;0.00;0.00;;;;;;;20.09;34.74;102130.59;10535161;28;20048;-62
2022/05/02 08:59:00;;;;;;;0.00;0.00;;;;;;;20.10;36.21;102121.44;10534750;28;20032;-62
2022/05/02 09:04:21;;;;;;;0.00;0.00;;;;;;;20.00;36.05;102115.50;10563753;28;20490;-62
2022/05/02 09:10:06;;;;;;;0.00;0.00;;;;;;;19.36;37.83;102113.41;10576509;28;20367;-62
2022/05/02 09:15:30;;;;;;;0.10;0.10;;;;;;;18.67;36.76;102105.44;10459930;28;20147;-63
2022/05/02 09:20:43;;;;;;;0.10;0.10;;;;;;;18.43;38.85;102103.78;10566572;28;20031;-62
2022/05/02 09:26:05;;;;;;;0.00;0.00;;;;;;;18.35;39.99;102099.25;10583653;28;20026;-61
2022/05/02 09:31:17;;;;;;;0.10;0.10;;;;;;;18.68;38.69;102089.06;10571608;28;20077;-62
2022/05/02 09:36:32;;;;;;;0.10;0.10;;;;;;;18.85;38.13;102091.63;10547554;28;20028;-62
2022/05/02 09:41:46;;;;;;;0.03;0.03;;;;;;;18.30;42.47;102089.03;10550059;28;20035;-61
2022/05/02 09:53:03;;;;;;;0.10;0.10;;;;;;;18.49;41.13;102079.59;10542277;28;20394;-62
2022/05/02 09:58:29;;;;;;;0.10;0.10;;;;;;;18.10;40.81;102074.34;10541650;28;20496;-61
2022/05/02 10:03:48;;;;;;;0.10;0.10;;;;;;;18.30;41.55;102078.25;10541236;28;20363;-61
2022/05/02 10:08:56;;;;;;;0.10;0.10;;;;;;;18.33;40.68;102060.88;10541144;28;20032;-61
2022/05/02 10:14:05;;;;;;;0.10;0.10;;;;;;;18.89;43.30;102057.88;10540611;28;20035;-62
2022/05/02 10:19:14;;;;;;;0.10;0.10;;;;;;;18.96;41.53;102058.78;10540714;28;20028;-62
2022/05/02 10:24:36;;;;;;;0.10;0.10;;;;;;;18.06;41.88;102055.00;10556461;28;20028;-61
2022/05/02 10:30:03;;;;;;;0.10;0.10;;;;;;;17.82;42.29;102047.03;10582297;28;20390;-62
2022/05/02 10:35:07;;;;;;;0.10;0.10;;;;;;;17.69;45.21;102044.06;10581557;28;20052;-63
2022/05/02 10:40:13;;;;;;;0.10;0.10;;;;;;;18.28;42.33;102047.06;10582090;28;20381;-63
2022/05/02 10:45:14;;;;;;;0.10;0.10;;;;;;;18.47;43.42;102035.81;10581752;28;20024;-63
2022/05/02 10:50:16;;;;;;;0.10;0.10;;;;;;;17.84;43.29;102023.44;10581711;28;20034;-61
2022/05/02 10:55:30;;;;;;;0.00;0.00;;;;;;;18.02;43.93;102015.06;10581389;28;20024;-62
2022/05/02 11:00:32;;;;;;;0.10;0.10;;;;;;;18.14;44.21;102016.31;10581193;28;20085;-62
2022/05/02 11:06:02;;;;;;;0.10;0.10;;;;;;;18.69;44.51;102011.63;10581088;28;20031;-63
2022/05/02 11:11:07;;;;;;;0.10;0.10;;;;;;;18.47;44.09;102007.94;10580925;28;20104;-63
2022/05/02 11:16:22;;;;;;;0.10;0.10;;;;;;;18.27;43.45;102010.34;10580142;28;20028;-63
2022/05/02 11:21:44;;;;;;;0.10;0.10;;;;;;;17.39;45.88;102006.13;10580404;28;20028;-63
2022/05/02 11:26:50;;;;;;;0.10;0.10;;;;;;;17.77;47.90;102003.56;10580772;28;20047;-62
2022/05/02 11:32:11;;;;;;;0.10;0.10;;;;;;;18.30;46.65;102001.88;10580327;28;20065;-61
2022/05/02 11:37:24;;;;;;;0.10;0.10;;;;;;;18.52;45.55;102001.00;10558165;28;20097;-62
2022/05/02 11:42:28;;;;;;;0.10;0.10;;;;;;;18.70;42.88;101989.88;10578841;28;20027;-63
2022/05/02 11:47:51;;;;;;;0.10;0.10;;;;;;;18.59;44.56;101990.31;10562840;28;20040;-63
2022/05/02 11:52:54;;;;;;;0.00;0.00;;;;;;;17.88;47.07;101993.25;10537609;28;20044;-63
2022/05/02 11:58:05;;;;;;;0.10;0.10;;;;;;;17.57;44.86;101990.56;10536530;28;20039;-63
2022/05/02 12:03:16;;;;;;;0.10;0.10;;;;;;;17.31;46.19;101984.66;10536502;28;20024;-63
2022/05/02 12:08:25;;;;;;;0.10;0.10;;;;;;;17.20;47.69;101978.63;10536502;28;20058;-63
2022/05/02 12:13:33;;;;;;;0.10;0.10;;;;;;;17.24;48.19;101978.28;10535971;28;20027;-63
2022/05/02 12:18:51;;;;;;;0.00;0.00;;;;;;;17.19;46.21;101968.88;10535843;28;20027;-61
2022/05/02 12:23:53;;;;;;;0.10;0.10;;;;;;;17.12;46.40;101969.75;10536416;28;20028;-63
2022/05/02 12:28:56;;;;;;;0.10;0.10;;;;;;;16.88;46.95;101952.66;10535331;28;20020;-63
2022/05/02 12:34:02;;;;;;;0.10;0.10;;;;;;;17.02;48.30;101947.59;10535533;28;20028;-63
2022/05/02 12:39:09;;;;;;;0.10;0.10;;;;;;;17.00;48.49;101950.44;10535691;28;20441;-62
2022/05/02 12:44:12;;;;;;;0.10;0.10;;;;;;;17.13;47.35;101953.44;10534886;28;20390;-62
2022/05/02 12:49:26;;;;;;;0.10;0.10;;;;;;;16.92;46.94;101940.53;10535594;28;20088;-63
2022/05/02 12:54:26;;;;;;;0.20;0.20;;;;;;;16.72;48.85;101939.22;10534418;28;20078;-62
2022/05/02 13:04:47;;;;;;;0.25;0.25;;;;;;;16.92;48.74;101929.78;10534990;28;20024;-63
2022/05/02 13:09:52;;;;;;;0.10;0.10;;;;;;;17.07;47.06;101923.66;10534461;28;20442;-62
2022/05/02 13:14:58;;;;;;;0.00;0.00;;;;;;;17.03;49.21;101923.19;10534450;28;20024;-62
2022/05/02 13:20:02;;;;;;;0.10;0.10;;;;;;;17.01;49.58;101925.19;10534168;28;20044;-63
2022/05/02 13:25:03;;;;;;;;;;;;;;;16.60;47.99;101919.09;10534602;28;20476;-62
2022/05/02 13:30:09;;;;;;;0.10;0.10;;;;;;;16.18;50.38;101907.56;10538176;28;19908;-63
2022/05/02 13:35:11;;;;;;;0.10;0.10;;;;;;;16.56;50.29;101910.53;10576254;28;20024;-62
2022/05/02 13:40:14;;;;;;;0.10;0.10;;;;;;;16.71;49.82;101903.41;10576454;28;20043;-62
2022/05/02 13:45:35;;;;;;;0.10;0.10;;;;;;;16.93;50.44;101906.41;10575824;28;20031;-62
2022/05/02 13:50:41;;;;;;;0.10;0.10;;;;;;;17.03;47.48;101903.50;10575592;28;20128;-63
2022/05/02 13:55:53;;;;;;;0.10;0.10;;;;;;;17.19;49.97;101903.41;10563951;28;20490;-62
2022/05/02 14:01:29;;;;;;;0.10;0.10;;;;;;;17.08;46.49;101896.56;10575917;28;20027;-62
2022/05/02 14:06:42;;;;;;;0.10;0.10;;;;;;;16.57;45.71;101895.22;10577583;28;20382;-62
2022/05/02 14:11:43;;;;;;;0.10;0.10;;;;;;;16.38;46.46;101896.47;10583218;28;20539;-62
2022/05/02 14:16:43;;;;;;;0.10;0.10;;;;;;;16.20;45.51;101893.94;10582959;28;20036;-62
2022/05/02 14:21:45;;;;;;;0.10;0.10;;;;;;;16.23;43.96;101891.78;10582777;28;20024;-62
2022/05/02 14:26:57;;;;;;;0.10;0.10;;;;;;;16.21;43.81;101893.78;10582706;28;20074;-62
2022/05/02 14:32:05;;;;;;;0.10;0.10;;;;;;;16.09;42.61;101888.94;10583082;28;20094;-62
2022/05/02 14:37:07;;;;;;;0.10;0.10;;;;;;;16.17;41.55;101887.06;10582132;28;20461;-62
2022/05/02 14:42:08;;;;;;;0.00;0.00;;;;;;;16.01;42.37;101879.03;10562890;28;20035;-62
2022/05/02 14:47:08;;;;;;;0.10;0.10;;;;;;;16.01;40.68;101881.72;10538376;28;20020;-63
2022/05/02 14:52:18;;;;;;;0.10;0.10;;;;;;;15.75;41.32;101874.69;10572368;28;20035;-63
2022/05/02 14:57:22;;;;;;;0.10;0.10;;;;;;;15.76;42.81;101870.13;10580971;28;20039;-63
2022/05/02 15:02:28;;;;;;;;;;;;;;;15.84;41.38;101878.19;10579685;28;20471;-62
2022/05/02 15:07:44;;;;;;;0.10;0.10;;;;;;;15.84;43.01;101867.44;10581000;28;19951;-61
2022/05/02 15:13:03;;;;;;;0.10;0.10;;;;;;;15.79;43.06;101854.50;10580549;28;20157;-62
2022/05/02 15:18:20;;;;;;;0.10;0.10;;;;;;;15.88;43.61;101859.88;10542357;28;20469;-63
2022/05/02 15:23:22;;;;;;;0.10;0.10;;;;;;;15.77;44.29;101850.34;10538094;28;20443;-62
2022/05/02 15:39:03;;;;;;;0.10;0.10;;;;;;;15.32;44.12;101843.56;10537427;28;20394;-62
2022/05/02 15:44:19;;;;;;;0.10;0.10;;;;;;;15.09;43.39;101836.13;10537311;28;20020;-63
2022/05/02 15:49:28;;;;;;;0.10;0.10;;;;;;;15.04;42.47;101837.63;10537148;28;20024;-62
2022/05/02 15:54:34;;;;;;;0.10;0.10;;;;;;;14.87;43.65;101842.94;10536770;28;20108;-63
2022/05/02 15:59:36;;;;;;;0.10;0.10;;;;;;;14.79;43.52;101840.25;10539425;28;20027;-62
2022/05/02 16:04:49;;;;;;;0.10;0.10;;;;;;;14.66;44.67;101838.03;10578606;28;20428;-63
2022/05/02 16:15:17;;;;;;;0.10;0.10;;;;;;;14.47;43.69;101835.53;10573311;28;20027;-62
2022/05/02 16:20:18;;;;;;;0.10;0.10;;;;;;;14.37;44.97;101824.09;10578063;28;20028;-62
2022/05/02 16:25:28;;;;;;;0.10;0.10;;;;;;;14.24;44.42;101822.69;10577548;28;20059;-62
2022/05/02 16:30:30;;;;;;;0.10;0.10;;;;;;;14.18;43.41;101817.97;10577561;28;20301;-62
2022/05/02 16:35:31;;;;;;;0.10;0.10;;;;;;;14.08;44.17;101819.06;10577983;28;20317;-62
2022/05/02 16:40:35;;;;;;;0.10;0.10;;;;;;;14.02;45.18;101810.69;10577733;28;20514;-62
2022/05/02 16:45:36;;;;;;;0.00;0.00;;;;;;;13.92;46.58;101809.09;10574217;28;20024;-63
2022/05/02 16:50:41;;;;;;;0.10;0.10;;;;;;;13.81;44.63;101807.50;10574862;28;20463;-63
2022/05/02 16:55:42;;;;;;;0.10;0.10;;;;;;;13.69;47.03;101801.56;10576751;28;20019;-63
2022/05/02 17:06:08;;;;;;;0.10;0.10;;;;;;;13.41;51.63;101808.88;10576810;28;20019;-63
2022/05/02 17:11:08;;;;;;;0.10;0.10;;;;;;;13.27;51.64;101804.06;10576619;28;20034;-63
2022/05/02 17:16:15;;;;;;;0.10;0.10;;;;;;;13.10;51.41;101803.88;10576270;28;20027;-63
2022/05/02 17:21:16;;;;;;;0.10;0.10;;;;;;;12.99;52.02;101798.72;10577607;28;20028;-63
2022/05/02 17:26:18;;;;;;;0.10;0.10;;;;;;;12.85;51.70;101807.25;10576853;28;20043;-61
2022/05/02 17:31:23;;;;;;;0.10;0.10;;;;;;;12.67;50.59;101802.72;10577100;28;20032;-63
2022/05/02 17:36:23;;;;;;;0.10;0.10;;;;;;;12.52;51.02;101811.41;10576571;28;20023;-63
2022/05/02 17:41:24;;;;;;;0.10;0.10;;;;;;;12.41;49.63;101807.91;10578218;28;20024;-62
2022/05/02 17:46:33;;;;;;;0.10;0.10;;;;;;;12.29;49.80;101798.41;10584743;28;20035;-62
2022/05/02 17:51:38;;;;;;;0.10;0.10;;;;;;;12.17;50.59;101804.91;10584798;28;20747;-63
2022/05/02 17:56:41;;;;;;;0.10;0.10;;;;;;;12.05;50.09;101806.09;10583688;28;20502;-63
2022/05/02 18:01:41;;;;;;;0.10;0.10;;;;;;;11.94;50.22;101812.44;10584368;28;20035;-62
2022/05/02 18:06:42;;;;;;;0.10;0.10;;;;;;;11.81;50.54;101807.38;10583397;28;20484;-63
2022/05/02 18:17:18;;;;;;;0.00;0.00;;;;;;;11.50;50.68;101817.38;10582954;28;20039;-62
2022/05/02 18:22:21;;;;;;;0.10;0.10;;;;;;;11.36;52.67;101815.13;10583398;28;20379;-62
2022/05/02 18:27:26;;;;;;;0.10;0.10;;;;;;;11.17;54.72;101823.94;10583147;28;20024;-62
2022/05/02 18:32:28;;;;;;;0.10;0.10;;;;;;;10.97;58.78;101820.44;10583065;28;20023;-62
2022/05/02 18:37:32;;;;;;;0.10;0.10;;;;;;;10.78;61.83;101818.53;10580836;28;20438;-62
2022/05/02 18:42:37;;;;;;;0.05;0.05;;;;;;;10.65;63.21;101829.47;10582240;28;20027;-62
2022/05/02 18:53:12;;;;;;;0.00;0.00;;;;;;;10.35;63.23;101824.97;10581782;28;20027;-61
2022/05/02 18:58:14;;;;;;;0.10;0.10;;;;;;;10.16;64.48;101839.00;10581455;28;20379;-62
2022/05/02 19:03:15;;;;;;;0.00;0.00;;;;;;;9.97;66.22;101832.59;10581148;28;20074;-62
2022/05/02 19:08:20;;;;;;;0.00;0.00;;;;;;;9.87;68.32;101842.34;10580389;28;20024;-61
2022/05/02 19:13:27;;;;;;;0.10;0.10;;;;;;;9.71;68.44;101844.59;10581577;28;20052;-62
2022/05/02 19:18:27;;;;;;;0.00;0.00;;;;;;;9.57;69.92;101843.09;10582265;28;20440;-62
2022/05/02 19:24:03;;;;;;;0.00;0.00;;;;;;;9.49;70.52;101845.56;10580563;28;20064;-61
2022/05/02 19:29:08;;;;;;;0.00;0.00;;;;;;;9.41;70.67;101848.00;10547684;28;20284;-62
2022/05/02 19:39:46;;;;;;;0.10;0.10;;;;;;;9.13;72.31;101846.75;10579950;28;20443;-61
2022/05/02 19:44:55;;;;;;;0.00;0.00;;;;;;;8.95;74.74;101855.22;10580289;28;20024;-62
2022/05/02 19:49:57;;;;;;;0.00;0.00;;;;;;;8.82;76.93;101854.53;10579932;28;20059;-61
2022/05/02 19:54:59;;;;;;;0.00;0.00;;;;;;;8.69;78.03;101853.81;10579215;28;20072;-62
2022/05/02 19:59:59;;;;;;;0.00;0.00;;;;;;;8.56;78.51;101851.31;10579594;28;20031;-61
2022/05/02 20:04:59;;;;;;;0.00;0.00;;;;;;;8.50;79.00;101854.44;10577909;28;20024;-61
2022/05/02 20:10:00;;;;;;;0.00;0.00;;;;;;;8.39;79.52;101858.75;10578646;28;20106;-62
2022/05/02 20:15:00;;;;;;;0.00;0.00;;;;;;;8.37;81.95;101851.84;10576909;28;20084;-61
2022/05/02 20:20:00;;;;;;;0.00;0.00;;;;;;;8.32;82.04;101854.00;10578642;28;20551;-61
2022/05/02 20:25:01;;;;;;;0.00;0.00;;;;;;;8.24;83.00;101853.78;10577841;28;20016;-61
2022/05/02 20:30:02;;;;;;;0.00;0.00;;;;;;;8.15;84.90;101855.34;10577978;28;20024;-61
2022/05/02 20:40:21;;;;;;;0.00;0.00;;;;;;;7.97;85.73;101864.69;10577694;28;20032;-59
2022/05/02 20:45:26;;;;;;;0.00;0.00;;;;;;;7.83;87.64;101861.28;10578420;28;20459;-61
2022/05/02 20:50:30;;;;;;;0.00;0.00;;;;;;;7.78;89.86;101854.66;10578329;28;20030;-61
2022/05/02 20:55:32;;;;;;;0.00;0.00;;;;;;;7.72;90.43;101854.13;10576898;28;20153;-61
2022/05/02 21:00:32;;;;;;;0.00;0.00;;;;;;;7.71;89.98;101857.75;10576956;28;20607;-61
2022/05/02 21:05:34;;;;;;;0.00;0.00;;;;;;;7.67;90.68;101872.19;10577474;28;20103;-61
2022/05/02 21:10:41;;;;;;;0.00;0.00;;;;;;;7.61;91.01;101861.22;10561663;28;20478;-60
2022/05/02 21:16:02;;;;;;;0.00;0.00;;;;;;;7.58;92.07;101864.94;10550861;28;20024;-61
2022/05/02 21:21:07;;;;;;;0.00;0.00;;;;;;;7.42;92.26;101861.75;10591471;27;20028;-61
2022/05/02 21:26:16;;;;;;;0.10;0.10;;;;;;;7.28;93.74;101865.41;10591148;27;20091;-61
2022/05/02 21:31:25;;;;;;;0.00;0.00;;;;;;;7.18;95.20;101859.06;10591285;27;20028;-61
2022/05/02 21:36:26;;;;;;;0.00;0.00;;;;;;;7.10;96.84;101857.00;10590781;27;20030;-61
2022/05/02 21:41:33;;;;;;;0.00;0.00;;;;;;;6.98;95.85;101861.38;10587521;27;20463;-61
2022/05/02 21:46:35;;;;;;;0.00;0.00;;;;;;;6.86;97.01;101861.38;10546494;28;20073;-61
2022/05/02 21:51:36;;;;;;;0.00;0.00;;;;;;;6.75;100.00;101864.81;10553832;28;20094;-60
2022/05/02 21:56:37;;;;;;;0.00;0.00;;;;;;;6.70;100.00;101867.78;10547623;28;20016;-60
2022/05/02 22:01:37;;;;;;;0.00;0.00;;;;;;;6.57;100.00;101862.53;10562090;28;20080;-61
2022/05/02 22:06:37;;;;;;;0.00;0.00;;;;;;;6.48;100.00;101862.31;10589756;27;20023;-61
2022/05/02 22:11:38;;;;;;;0.00;0.00;;;;;;;6.38;100.00;101863.91;10583351;27;20254;-61
2022/05/02 22:16:38;;;;;;;0.00;0.00;;;;;;;6.29;100.00;101866.22;10539937;22;20311;-63
2022/05/02 22:21:38;;;;;;;0.00;0.00;;;;;;;6.24;100.00;101871.00;10500790;28;20122;-64
2022/05/02 22:26:39;;;;;;;0.00;0.00;;;;;;;6.16;100.00;101869.81;10500296;28;20039;-64
2022/05/02 22:31:39;;;;;;;0.10;0.10;;;;;;;6.05;100.00;101871.41;10496525;28;20027;-63
2022/05/02 22:36:40;;;;;;;0.00;0.00;;;;;;;5.94;100.00;101858.06;10495753;28;20020;-63
2022/05/02 22:41:40;;;;;;;0.00;0.00;;;;;;;6.09;100.00;101859.66;10493034;28;20489;-63
2022/05/02 22:46:40;;;;;;;0.00;0.00;;;;;;;6.08;100.00;101849.19;10493143;28;20081;-64
2022/05/02 22:51:41;;;;;;;0.00;0.00;;;;;;;6.01;100.00;101845.25;10495627;28;20095;-63
2022/05/02 22:56:53;;;;;;;0.00;0.00;;;;;;;5.99;100.00;101841.88;10494709;28;20047;-63
2022/05/02 23:02:06;;;;;;;0.00;0.00;;;;;;;5.81;100.00;101844.78;10495154;28;21043;-63
2022/05/02 23:07:26;;;;;;;0.00;0.00;;;;;;;5.68;100.00;101843.91;10494384;28;20668;-63
2022/05/02 23:12:30;;;;;;;0.00;0.00;;;;;;;5.46;100.00;101849.78;10488798;28;20386;-64
2022/05/02 23:17:33;;;;;;;0.00;0.00;;;;;;;5.39;100.00;101838.75;10492894;28;20039;-63
2022/05/02 23:22:37;;;;;;;0.00;0.00;;;;;;;5.15;100.00;101829.81;10494821;28;20028;-63
2022/05/02 23:27:39;;;;;;;0.00;0.00;;;;;;;5.05;100.00;101833.97;10493037;28;20034;-63
2022/05/02 23:33:09;;;;;;;0.00;0.00;;;;;;;4.95;100.00;101831.94;10493959;28;20032;-63
2022/05/02 23:38:15;;;;;;;0.05;0.05;;;;;;;4.84;100.00;101826.50;10491521;28;20048;-63
2022/05/02 23:43:29;;;;;;;0.00;0.00;;;;;;;4.81;100.00;101828.47;10486604;28;20104;-63
2022/05/02 23:48:41;;;;;;;0.00;0.00;;;;;;;4.70;100.00;101821.22;10492937;28;20050;-63
2022/05/02 23:54:14;;;;;;;0.03;0.03;;;;;;;4.59;100.00;101810.50;10492541;28;20048;-64
2022/05/02 23:59:27;;;;;;;0.00;0.00;;;;;;;4.61;100.00;101804.19;10492387;28;20037;-63
